Time;durP1;ratioP1;P1;durP2;ratioP2;P2;SDS_P1;SDS_P2;PMS_P1;PMS_P2;Temp;Humidity;BMP_temperature;BMP_pressure;BME280_temperature;BME280_humidity;BME280_pressure;Samples;Min_cycle;Max_cycle;Signal;HPM_P1;HPM_P2
2024/02/27 00:01:37;;;;;;;7.82;4.30;;;7.90;79.70;;;;;;5000893;28;20026;-62
2024/02/27 00:04:02;;;;;;;5.60;4.03;;;7.80;79.70;;;;;;5002383;28;20095;-62
2024/02/27 00:06:29;;;;;;;5.68;3.88;;;7.80;79.70;;;;;;4997883;28;20529;-59
2024/02/27 00:08:54;;;;;;;6.60;3.88;;;7.80;79.80;;;;;;5016197;28;20069;-60
2024/02/27 00:11:22;;;;;;;6.68;4.05;;;7.80;79.80;;;;;;5004220;28;20057;-59
2024/02/27 00:13:48;;;;;;;6.18;4.40;;;7.90;79.90;;;;;;5008255;28;20480;-62
2024/02/27 00:16:16;;;;;;;6.70;4.32;;;7.90;79.90;;;;;;5004153;28;20033;-62
2024/02/27 00:18:42;;;;;;;7.38;4.53;;;7.90;79.90;;;;;;5006310;28;20034;-60
2024/02/27 00:21:08;;;;;;;5.88;4.28;;;7.90;79.80;;;;;;5007180;28;20111;-62
2024/02/27 00:23:33;;;;;;;6.75;4.25;;;7.90;79.80;;;;;;4998832;28;20477;-61
2024/02/27 00:25:59;;;;;;;6.68;4.50;;;7.80;79.80;;;;;;4998433;28;20070;-62
2024/02/27 00:28:25;;;;;;;7.22;4.75;;;7.80;79.80;;;;;;5009743;28;20084;-62
2024/02/27 00:30:51;;;;;;;7.40;4.78;;;7.80;79.90;;;;;;5009116;28;20128;-62
2024/02/27 00:33:16;;;;;;;6.55;4.80;;;7.80;80.00;;;;;;5006669;28;20129;-62
2024/02/27 00:35:42;;;;;;;6.93;4.88;;;7.80;80.10;;;;;;4999662;28;20481;-60
2024/02/27 00:38:08;;;;;;;6.35;4.18;;;7.80;80.10;;;;;;5002616;28;20480;-62
2024/02/27 00:40:34;;;;;;;5.18;4.13;;;7.80;80.10;;;;;;5005232;28;20045;-60
2024/02/27 00:43:00;;;;;;;6.47;4.50;;;7.80;80.10;;;;;;5004055;28;20064;-61
2024/02/27 00:45:26;;;;;;;6.65;4.20;;;7.80;80.20;;;;;;5005574;28;20030;-62
2024/02/27 00:47:52;;;;;;;5.65;4.20;;;7.80;80.20;;;;;;5000352;28;20092;-62
2024/02/27 00:50:18;;;;;;;5.43;4.18;;;7.80;80.10;;;;;;5004918;28;20064;-61
2024/02/27 00:52:44;;;;;;;4.15;3.70;;;7.80;80.20;;;;;;5004315;28;20034;-62
2024/02/27 00:55:09;;;;;;;4.88;3.63;;;7.80;80.30;;;;;;5006045;28;20042;-60
2024/02/27 00:57:35;;;;;;;4.47;3.40;;;7.80;81.20;;;;;;5005069;28;20033;-61
2024/02/27 01:00:08;;;;;;;5.20;3.58;;;7.80;80.50;;;;;;5005223;28;20025;-61
2024/02/27 01:02:35;;;;;;;5.80;3.65;;;7.80;80.50;;;;;;5003680;28;20041;-60
2024/02/27 01:05:01;;;;;;;4.18;3.40;;;7.80;80.50;;;;;;5004319;28;20414;-62
2024/02/27 01:07:27;;;;;;;4.30;3.40;;;7.80;80.50;;;;;;5002179;28;20029;-61
2024/02/27 01:09:53;;;;;;;4.50;3.10;;;7.90;80.50;;;;;;5001686;28;20121;-62
2024/02/27 01:12:19;;;;;;;3.72;3.28;;;7.90;80.50;;;;;;5005688;28;20037;-63
2024/02/27 01:14:45;;;;;;;5.47;3.20;;;7.90;80.60;;;;;;5005533;28;20026;-62
2024/02/27 01:17:11;;;;;;;3.95;3.25;;;7.90;80.60;;;;;;5005053;28;20026;-62
2024/02/27 01:19:36;;;;;;;5.18;3.88;;;7.90;80.60;;;;;;5006989;28;20564;-62
2024/02/27 01:22:02;;;;;;;5.40;4.07;;;7.90;80.50;;;;;;5006505;28;20117;-61
2024/02/27 01:24:28;;;;;;;4.78;4.05;;;7.90;80.60;;;;;;5002827;28;20077;-63
2024/02/27 01:26:53;;;;;;;4.85;3.78;;;7.90;80.60;;;;;;5005609;28;20041;-62
2024/02/27 01:29:19;;;;;;;7.00;3.72;;;7.90;80.50;;;;;;5004347;28;20049;-62
2024/02/27 01:31:45;;;;;;;4.70;3.92;;;7.90;80.50;;;;;;5006555;28;20057;-62
2024/02/27 01:34:11;;;;;;;4.85;3.70;;;7.90;80.50;;;;;;5009856;28;20309;-62
2024/02/27 01:36:38;;;;;;;4.28;3.83;;;7.90;80.50;;;;;;5003492;28;20084;-62
2024/02/27 01:39:04;;;;;;;5.22;3.85;;;7.90;80.50;;;;;;5003761;28;20026;-62
2024/02/27 01:41:32;;;;;;;5.15;3.60;;;7.90;80.50;;;;;;5002819;28;20120;-59
2024/02/27 01:43:58;;;;;;;4.53;3.58;;;7.90;80.50;;;;;;5005780;28;20125;-62
2024/02/27 01:46:24;;;;;;;6.03;3.33;;;7.90;80.40;;;;;;5007475;28;20160;-60
2024/02/27 01:48:53;;;;;;;4.47;3.60;;;7.90;80.50;;;;;;5000762;28;20034;-59
2024/02/27 01:51:19;;;;;;;3.42;3.05;;;7.90;80.40;;;;;;5000305;28;20056;-61
2024/02/27 01:53:50;;;;;;;3.60;3.25;;;7.80;80.40;;;;;;5000456;28;20033;-60
2024/02/27 01:56:17;;;;;;;3.53;3.15;;;7.80;80.50;;;;;;5004075;28;20451;-63
2024/02/27 01:58:47;;;;;;;3.80;3.25;;;7.80;80.50;;;;;;5002444;28;20501;-62
2024/02/27 02:01:13;;;;;;;3.90;2.97;;;7.80;80.50;;;;;;5002970;28;20454;-62
2024/02/27 02:03:40;;;;;;;4.97;3.10;;;7.80;80.50;;;;;;5004396;28;20061;-61
2024/02/27 02:06:07;;;;;;;4.82;2.97;;;7.80;80.50;;;;;;5004446;28;20091;-62
2024/02/27 02:08:33;;;;;;;3.92;3.00;;;7.80;80.50;;;;;;5001091;28;20030;-62
2024/02/27 02:11:10;;;;;;;4.65;3.13;;;7.80;80.50;;;;;;5006416;28;20030;-62
2024/02/27 02:13:36;;;;;;;3.83;3.15;;;7.80;80.40;;;;;;5005142;28;20406;-59
2024/02/27 02:16:01;;;;;;;4.68;3.33;;;7.80;80.30;;;;;;5001006;28;20042;-61
2024/02/27 02:18:27;;;;;;;4.78;3.15;;;7.90;80.40;;;;;;5001877;28;20497;-62
2024/02/27 02:20:53;;;;;;;4.25;3.20;;;7.90;80.40;;;;;;5005136;28;20083;-62
2024/02/27 02:23:18;;;;;;;6.97;3.10;;;7.90;80.30;;;;;;5000086;28;20414;-60
2024/02/27 02:25:47;;;;;;;4.38;3.30;;;7.90;80.30;;;;;;5014156;28;20329;-62
2024/02/27 02:28:14;;;;;;;4.45;3.38;;;7.90;81.30;;;;;;5005669;28;20026;-63
2024/02/27 02:30:40;;;;;;;4.97;3.65;;;7.90;80.50;;;;;;5000865;28;20041;-62
2024/02/27 02:33:06;;;;;;;4.97;3.50;;;7.90;81.30;;;;;;4999567;28;20036;-61
2024/02/27 02:35:32;;;;;;;4.55;3.35;;;7.90;80.50;;;;;;5002034;28;20080;-62
2024/02/27 02:37:58;;;;;;;4.95;4.07;;;7.90;80.60;;;;;;5002851;28;20038;-62
2024/02/27 02:40:25;;;;;;;6.82;4.10;;;7.90;80.50;;;;;;5001692;28;20654;-62
2024/02/27 02:42:51;;;;;;;6.80;4.85;;;7.90;80.40;;;;;;5000368;28;20564;-62
2024/02/27 02:45:17;;;;;;;5.05;4.07;;;7.90;80.40;;;;;;5000254;28;20080;-62
2024/02/27 02:47:43;;;;;;;5.53;4.25;;;7.90;80.50;;;;;;5000356;28;20034;-61
2024/02/27 02:50:10;;;;;;;6.47;4.28;;;7.90;80.50;;;;;;5005402;28;20431;-62
2024/02/27 02:52:36;;;;;;;7.43;4.78;;;7.90;80.60;;;;;;5003507;28;20052;-62
2024/02/27 02:55:02;;;;;;;7.10;5.05;;;8.00;80.60;;;;;;5001725;28;20501;-61
2024/02/27 02:57:29;;;;;;;6.22;4.60;;;7.90;80.60;;;;;;5000699;28;20277;-62
2024/02/27 02:59:55;;;;;;;6.15;4.47;;;8.00;80.70;;;;;;4998885;28;20033;-62
2024/02/27 03:02:21;;;;;;;6.40;4.70;;;8.00;80.70;;;;;;5001435;28;20030;-62
2024/02/27 03:04:46;;;;;;;8.60;5.40;;;8.00;80.80;;;;;;5002275;28;20037;-62
2024/02/27 03:07:12;;;;;;;7.40;5.53;;;8.00;80.80;;;;;;4997817;28;20129;-62
2024/02/27 03:09:37;;;;;;;8.95;4.95;;;8.00;80.80;;;;;;4999387;28;20029;-61
2024/02/27 03:12:03;;;;;;;8.20;5.40;;;8.00;80.80;;;;;;4997918;28;20046;-62
2024/02/27 03:14:29;;;;;;;7.32;5.22;;;8.00;80.80;;;;;;4997612;28;20034;-62
2024/02/27 03:16:55;;;;;;;8.25;5.70;;;8.00;80.90;;;;;;4997365;28;20544;-61
2024/02/27 03:19:20;;;;;;;8.02;5.57;;;8.10;80.90;;;;;;4999098;28;20037;-62
2024/02/27 03:21:46;;;;;;;7.78;5.50;;;8.10;80.90;;;;;;4997794;28;20037;-62
2024/02/27 03:24:12;;;;;;;8.13;5.90;;;8.10;81.00;;;;;;4999297;28;20041;-62
2024/02/27 03:26:37;;;;;;;9.75;5.93;;;8.10;81.00;;;;;;5006235;28;20227;-62
2024/02/27 03:29:03;;;;;;;8.88;5.63;;;8.10;81.00;;;;;;4999424;28;20073;-62
2024/02/27 03:31:29;;;;;;;8.93;6.13;;;8.10;80.90;;;;;;5002129;28;20567;-62
2024/02/27 03:33:54;;;;;;;7.43;5.82;;;8.20;80.80;;;;;;5001479;28;20044;-62
2024/02/27 03:36:20;;;;;;;8.30;6.32;;;8.10;80.70;;;;;;5001104;28;20038;-63
2024/02/27 03:38:46;;;;;;;8.50;6.07;;;8.20;80.70;;;;;;5003241;28;20064;-62
2024/02/27 03:41:12;;;;;;;9.30;6.28;;;8.20;80.70;;;;;;5000377;28;20041;-62
2024/02/27 03:43:38;;;;;;;11.27;6.20;;;8.20;80.60;;;;;;5006752;28;20038;-62
2024/02/27 03:46:04;;;;;;;8.70;5.95;;;8.20;80.60;;;;;;5005328;28;20628;-62
2024/02/27 03:48:29;;;;;;;8.20;5.88;;;8.20;80.60;;;;;;5009515;28;20033;-62
2024/02/27 03:50:55;;;;;;;8.85;6.30;;;8.20;80.60;;;;;;5006613;28;20041;-62
2024/02/27 03:53:20;;;;;;;8.23;6.00;;;8.20;80.50;;;;;;5006585;28;20038;-62
2024/02/27 03:55:46;;;;;;;8.05;5.75;;;8.30;80.50;;;;;;5004160;28;20041;-62
2024/02/27 03:58:11;;;;;;;9.23;6.57;;;8.20;80.40;;;;;;5001889;28;20132;-62
2024/02/27 04:00:37;;;;;;;8.70;5.82;;;8.20;80.40;;;;;;5003936;28;20038;-62
2024/02/27 04:03:03;;;;;;;9.30;6.13;;;8.20;80.30;;;;;;5001377;28;20038;-62
2024/02/27 04:05:29;;;;;;;9.90;6.20;;;8.30;80.20;;;;;;5006765;28;20046;-61
2024/02/27 04:07:54;;;;;;;8.50;6.20;;;8.20;80.10;;;;;;5003860;28;20026;-62
2024/02/27 04:10:20;;;;;;;8.70;5.68;;;8.30;80.20;;;;;;5006151;28;20508;-62
2024/02/27 04:12:46;;;;;;;8.40;6.03;;;8.30;80.10;;;;;;5004371;28;20112;-62
2024/02/27 04:15:11;;;;;;;8.77;5.93;;;8.20;79.90;;;;;;5004372;28;20057;-62
2024/02/27 04:17:37;;;;;;;10.43;6.68;;;8.20;79.80;;;;;;5006202;28;20026;-62
2024/02/27 04:20:05;;;;;;;9.65;6.35;;;8.20;79.70;;;;;;5006460;28;20068;-63
2024/02/27 04:22:31;;;;;;;9.05;6.30;;;8.20;79.60;;;;;;4998442;28;20470;-62
2024/02/27 04:24:56;;;;;;;8.43;6.13;;;8.20;79.60;;;;;;5004946;28;20117;-62
2024/02/27 04:27:22;;;;;;;8.48;6.03;;;8.20;79.50;;;;;;5004383;28;20054;-62
2024/02/27 04:29:47;;;;;;;10.48;6.88;;;8.20;79.50;;;;;;5004201;28;20280;-62
2024/02/27 04:32:14;;;;;;;10.02;6.65;;;8.20;79.40;;;;;;5002000;28;20071;-61
2024/02/27 04:34:41;;;;;;;10.73;7.00;;;8.20;79.40;;;;;;5003135;28;20421;-62
2024/02/27 04:37:07;;;;;;;11.75;6.57;;;8.20;79.40;;;;;;5000783;28;20532;-62
2024/02/27 04:39:32;;;;;;;10.20;6.70;;;8.20;79.40;;;;;;4998073;28;20053;-60
2024/02/27 04:41:58;;;;;;;10.30;6.93;;;8.10;79.30;;;;;;5008411;28;20210;-62
2024/02/27 04:44:23;;;;;;;10.23;6.70;;;8.10;79.40;;;;;;5003434;28;20033;-62
2024/02/27 04:46:49;;;;;;;11.95;7.60;;;8.10;79.30;;;;;;5000844;28;20041;-62
2024/02/27 04:49:15;;;;;;;11.85;7.30;;;8.10;79.30;;;;;;5000803;28;20037;-62
2024/02/27 04:51:40;;;;;;;11.52;7.65;;;8.10;79.40;;;;;;5003045;28;20046;-62
2024/02/27 04:54:06;;;;;;;15.00;8.38;;;8.10;79.40;;;;;;5002787;28;20038;-62
2024/02/27 04:56:31;;;;;;;21.63;12.02;;;8.10;79.40;;;;;;5000879;28;20085;-63
2024/02/27 04:58:57;;;;;;;27.73;15.35;;;8.10;79.50;;;;;;5003471;28;20030;-62
2024/02/27 05:01:23;;;;;;;27.27;14.43;;;8.10;79.50;;;;;;5003817;28;20037;-62
2024/02/27 05:03:48;;;;;;;20.25;12.80;;;8.10;79.50;;;;;;5002948;28;20042;-62
2024/02/27 05:06:14;;;;;;;17.83;11.00;;;8.10;79.60;;;;;;5004934;28;20421;-61
2024/02/27 05:08:39;;;;;;;14.23;8.77;;;8.10;79.60;;;;;;5003957;28;20058;-62
2024/02/27 05:11:05;;;;;;;15.45;9.18;;;8.00;79.50;;;;;;4998806;28;20049;-62
2024/02/27 05:13:30;;;;;;;13.43;9.20;;;8.00;79.50;;;;;;5003812;28;20113;-62
2024/02/27 05:15:56;;;;;;;13.82;9.30;;;8.00;79.30;;;;;;5009846;28;20033;-61
2024/02/27 05:18:22;;;;;;;14.52;8.75;;;8.00;79.20;;;;;;5004163;28;20513;-62
2024/02/27 05:20:48;;;;;;;14.52;9.07;;;8.00;79.30;;;;;;5000333;28;20034;-61
2024/02/27 05:23:16;;;;;;;14.23;8.65;;;8.00;79.40;;;;;;5002751;28;20034;-62
2024/02/27 05:25:42;;;;;;;15.40;9.32;;;7.90;79.50;;;;;;5004597;28;20030;-62
2024/02/27 05:28:09;;;;;;;14.30;8.98;;;7.90;79.60;;;;;;5008645;28;20037;-62
2024/02/27 05:30:34;;;;;;;14.57;9.38;;;7.90;79.70;;;;;;5004341;28;20061;-61
2024/02/27 05:33:00;;;;;;;14.55;9.30;;;7.80;79.70;;;;;;5008627;28;20084;-62
2024/02/27 05:35:26;;;;;;;15.10;9.50;;;7.80;79.80;;;;;;5007256;28;20034;-61
2024/02/27 05:37:51;;;;;;;15.30;9.57;;;7.80;79.80;;;;;;5006456;28;20038;-62
2024/02/27 05:40:17;;;;;;;14.52;9.50;;;7.80;79.80;;;;;;5007079;28;20033;-60
2024/02/27 05:42:42;;;;;;;15.52;9.52;;;7.80;79.90;;;;;;5007932;28;20489;-60
2024/02/27 05:45:08;;;;;;;17.08;9.68;;;7.80;80.00;;;;;;5006126;28;20038;-62
2024/02/27 05:47:34;;;;;;;15.60;9.52;;;7.80;80.00;;;;;;5005440;28;20117;-61
2024/02/27 05:49:59;;;;;;;15.38;9.43;;;7.70;80.00;;;;;;5009091;28;20030;-62
2024/02/27 05:52:25;;;;;;;15.15;10.07;;;7.70;80.90;;;;;;5006617;28;20038;-62
2024/02/27 05:54:51;;;;;;;16.58;10.23;;;7.70;80.10;;;;;;5007473;28;20414;-61
2024/02/27 05:57:17;;;;;;;16.55;10.20;;;7.70;80.10;;;;;;5008472;28;20030;-61
2024/02/27 05:59:42;;;;;;;16.42;10.02;;;7.70;80.10;;;;;;5007253;28;20467;-61
2024/02/27 06:02:08;;;;;;;15.32;9.57;;;7.70;80.10;;;;;;5008322;28;20037;-60
2024/02/27 06:04:34;;;;;;;16.77;10.02;;;7.70;80.20;;;;;;5005879;28;20030;-62
2024/02/27 06:06:59;;;;;;;17.42;10.85;;;7.70;80.20;;;;;;5007154;28;20045;-62
2024/02/27 06:09:25;;;;;;;20.25;10.85;;;7.70;80.10;;;;;;5007107;28;20285;-62
2024/02/27 06:11:51;;;;;;;19.17;11.23;;;7.60;80.00;;;;;;5008220;28;20080;-60
2024/02/27 06:14:16;;;;;;;18.90;10.68;;;7.60;80.00;;;;;;5006296;28;20125;-61
2024/02/27 06:16:42;;;;;;;19.48;11.15;;;7.60;80.10;;;;;;5007257;28;20038;-61
2024/02/27 06:19:09;;;;;;;17.95;10.95;;;7.50;81.20;;;;;;5007268;28;20036;-61
2024/02/27 06:24:19;;;;;;;16.63;10.87;;;7.50;80.30;;;;;;5007703;28;20041;-61
2024/02/27 06:26:44;;;;;;;21.25;11.38;;;7.50;80.30;;;;;;5007732;28;20037;-62
2024/02/27 06:29:10;;;;;;;19.13;11.80;;;7.50;80.30;;;;;;5005565;28;20117;-61
2024/02/27 06:31:35;;;;;;;20.10;11.35;;;7.50;80.30;;;;;;5007139;28;20541;-62
2024/02/27 06:34:03;;;;;;;20.83;11.77;;;7.50;80.40;;;;;;5005005;28;20053;-62
2024/02/27 06:36:30;;;;;;;19.58;12.30;;;7.50;80.40;;;;;;5005983;28;20501;-60
2024/02/27 06:38:56;;;;;;;19.42;11.27;;;7.50;80.40;;;;;;5007064;28;20075;-61
2024/02/27 06:41:25;;;;;;;18.35;11.45;;;7.40;80.30;;;;;;5007436;28;20040;-61
2024/02/27 06:43:51;;;;;;;21.35;11.93;;;7.40;80.50;;;;;;5002749;28;20062;-61
2024/02/27 06:46:17;;;;;;;18.67;11.82;;;7.40;80.60;;;;;;5006248;28;20065;-59
2024/02/27 06:48:43;;;;;;;17.55;11.43;;;7.40;80.60;;;;;;5005955;28;20508;-58
2024/02/27 06:51:09;;;;;;;19.98;11.85;;;7.50;80.70;;;;;;5004901;28;20050;-61
2024/02/27 06:53:35;;;;;;;21.20;12.60;;;7.40;80.60;;;;;;5006952;28;20575;-61
2024/02/27 06:56:04;;;;;;;20.67;12.65;;;7.40;80.60;;;;;;5004197;28;20052;-61
2024/02/27 06:58:30;;;;;;;20.88;12.68;;;7.40;80.80;;;;;;5007178;28;20058;-62
2024/02/27 07:00:56;;;;;;;24.55;14.00;;;7.40;80.70;;;;;;5006789;28;20077;-60
2024/02/27 07:03:21;;;;;;;22.08;13.32;;;7.40;80.80;;;;;;5007097;28;20041;-63
2024/02/27 07:05:48;;;;;;;23.08;13.50;;;7.40;80.80;;;;;;5005951;28;20117;-60
2024/02/27 07:08:14;;;;;;;23.63;13.55;;;7.40;80.90;;;;;;5005487;28;20076;-62
2024/02/27 07:10:40;;;;;;;26.02;13.80;;;7.40;81.00;;;;;;5006083;28;20429;-60
2024/02/27 07:13:09;;;;;;;19.58;12.73;;;7.40;81.00;;;;;;5007245;28;20034;-61
2024/02/27 07:15:38;;;;;;;24.95;13.40;;;7.40;81.00;;;;;;5004132;28;20029;-62
2024/02/27 07:18:04;;;;;;;19.80;12.48;;;7.40;81.90;;;;;;5005648;28;20057;-62
2024/02/27 07:20:30;;;;;;;20.42;12.98;;;7.40;81.20;;;;;;5005785;28;20120;-61
2024/02/27 07:22:56;;;;;;;23.67;13.75;;;7.40;81.20;;;;;;5007217;28;20379;-60
2024/02/27 07:25:22;;;;;;;23.85;14.15;;;7.40;81.20;;;;;;5005124;28;20064;-61
2024/02/27 07:27:48;;;;;;;26.58;15.52;;;7.50;81.20;;;;;;5005975;28;20029;-60
2024/02/27 07:30:18;;;;;;;28.92;15.52;;;7.50;81.30;;;;;;5006960;28;20587;-61
2024/02/27 07:32:44;;;;;;;25.77;15.30;;;7.50;81.30;;;;;;5007158;28;20053;-61
2024/02/27 07:35:10;;;;;;;26.63;15.32;;;7.50;81.20;;;;;;5006972;28;20034;-61
2024/02/27 07:37:37;;;;;;;24.17;14.32;;;7.50;81.20;;;;;;5005143;28;20121;-61
2024/02/27 07:40:03;;;;;;;23.25;13.90;;;7.50;81.20;;;;;;5005962;28;20034;-62
2024/02/27 07:42:29;;;;;;;24.20;14.38;;;7.50;81.30;;;;;;5006507;28;20084;-61
2024/02/27 07:44:55;;;;;;;25.13;14.70;;;7.50;81.30;;;;;;5006188;28;20490;-61
2024/02/27 07:47:20;;;;;;;23.48;13.45;;;7.60;81.30;;;;;;5004544;28;20042;-61
2024/02/27 07:49:47;;;;;;;22.00;13.55;;;7.50;81.20;;;;;;5009174;28;20068;-61
2024/02/27 07:52:13;;;;;;;21.67;13.07;;;7.50;81.20;;;;;;5008952;28;20395;-62
2024/02/27 07:54:39;;;;;;;23.58;14.15;;;7.50;81.20;;;;;;5003878;28;20034;-61
2024/02/27 07:57:06;;;;;;;24.55;13.85;;;7.60;81.30;;;;;;5006068;28;20116;-62
2024/02/27 07:59:31;;;;;;;25.33;14.13;;;7.60;81.30;;;;;;5004753;28;20030;-62
2024/02/27 08:01:57;;;;;;;22.95;13.98;;;7.60;81.30;;;;;;5002291;28;20585;-62
2024/02/27 08:04:23;;;;;;;22.08;13.43;;;7.60;81.20;;;;;;5008500;28;20034;-62
2024/02/27 08:06:48;;;;;;;24.10;13.48;;;7.60;81.20;;;;;;5006657;28;20532;-58
2024/02/27 08:09:16;;;;;;;22.52;13.57;;;7.70;81.00;;;;;;5006296;28;20109;-62
2024/02/27 08:11:42;;;;;;;23.83;14.13;;;7.70;81.00;;;;;;5005321;28;20088;-61
2024/02/27 08:14:07;;;;;;;24.63;14.35;;;7.70;81.00;;;;;;5008267;28;20038;-61
2024/02/27 08:16:33;;;;;;;25.45;14.05;;;7.70;80.80;;;;;;5006330;28;20034;-61
2024/02/27 08:19:03;;;;;;;24.25;13.93;;;7.80;80.80;;;;;;5006163;28;20058;-61
2024/02/27 08:21:35;;;;;;;22.85;13.93;;;7.80;80.80;;;;;;5005392;28;20068;-60
2024/02/27 08:24:02;;;;;;;22.83;13.77;;;7.80;80.60;;;;;;5005349;28;20046;-60
2024/02/27 08:26:28;;;;;;;23.65;13.77;;;7.80;80.60;;;;;;5005073;28;20033;-62
2024/02/27 08:28:54;;;;;;;21.63;12.40;;;7.90;80.60;;;;;;5006491;28;20521;-62
2024/02/27 08:31:19;;;;;;;19.90;12.50;;;7.90;80.50;;;;;;5009815;28;20410;-61
2024/02/27 08:33:45;;;;;;;18.70;11.68;;;7.90;80.30;;;;;;5008956;28;20046;-60
2024/02/27 08:36:11;;;;;;;18.33;12.07;;;8.00;80.30;;;;;;5008785;28;20413;-60
2024/02/27 08:38:36;;;;;;;17.95;11.60;;;8.00;80.30;;;;;;5008533;28;20050;-60
2024/02/27 08:41:02;;;;;;;17.80;11.75;;;8.00;80.20;;;;;;5010447;28;20061;-60
2024/02/27 08:43:28;;;;;;;20.17;12.68;;;8.10;80.10;;;;;;5008696;28;20049;-61
2024/02/27 08:45:53;;;;;;;17.60;11.38;;;8.10;80.00;;;;;;5009288;28;20080;-62
2024/02/27 08:48:19;;;;;;;21.67;12.43;;;8.10;80.80;;;;;;5008274;28;20414;-61
2024/02/27 08:50:47;;;;;;;17.30;11.75;;;8.10;80.00;;;;;;5009994;28;20040;-63
2024/02/27 08:53:13;;;;;;;18.55;12.38;;;8.10;80.00;;;;;;5007119;28;20521;-62
2024/02/27 08:55:39;;;;;;;18.98;11.48;;;8.10;80.00;;;;;;5007945;28;20505;-62
2024/02/27 08:58:05;;;;;;;19.30;11.90;;;8.20;80.10;;;;;;5009203;28;20049;-61
2024/02/27 09:00:31;;;;;;;19.00;12.23;;;8.20;80.10;;;;;;5009382;28;20140;-61
2024/02/27 09:02:58;;;;;;;19.90;12.15;;;8.20;80.10;;;;;;5006672;28;20497;-61
2024/02/27 09:05:24;;;;;;;19.92;11.63;;;8.30;80.30;;;;;;5007739;28;20041;-61
2024/02/27 09:07:50;;;;;;;20.50;11.50;;;8.40;80.30;;;;;;5006216;28;20045;-60
2024/02/27 09:10:17;;;;;;;19.85;12.60;;;8.40;80.10;;;;;;5011358;28;20061;-62
2024/02/27 09:12:42;;;;;;;17.88;11.68;;;8.50;79.90;;;;;;5008218;28;20037;-61
2024/02/27 09:15:08;;;;;;;20.63;12.23;;;8.50;79.90;;;;;;5009257;28;20033;-61
2024/02/27 09:17:35;;;;;;;20.02;11.68;;;8.50;79.80;;;;;;5005185;28;20054;-61
2024/02/27 09:20:01;;;;;;;19.85;12.57;;;8.60;79.80;;;;;;5008471;28;20038;-62
2024/02/27 09:22:26;;;;;;;19.17;12.57;;;8.60;79.60;;;;;;5006693;28;20022;-62
2024/02/27 09:24:52;;;;;;;20.08;12.63;;;8.70;79.40;;;;;;5007185;28;20026;-61
2024/02/27 09:27:20;;;;;;;21.35;12.93;;;8.70;79.40;;;;;;5005867;28;20056;-61
2024/02/27 09:29:45;;;;;;;18.88;12.50;;;8.70;79.30;;;;;;5009600;28;20100;-60
2024/02/27 09:32:13;;;;;;;23.13;13.32;;;8.70;79.40;;;;;;5009218;28;20437;-60
2024/02/27 09:34:41;;;;;;;19.83;13.00;;;8.70;79.40;;;;;;5008227;28;20440;-61
2024/02/27 09:37:06;;;;;;;17.55;12.07;;;8.70;79.40;;;;;;5006043;28;20060;-62
2024/02/27 09:39:32;;;;;;;19.15;12.82;;;8.70;79.60;;;;;;5005028;28;20042;-60
2024/02/27 09:42:09;;;;;;;18.45;12.52;;;8.80;79.70;;;;;;5008104;28;20173;-61
2024/02/27 09:44:39;;;;;;;17.52;12.45;;;8.80;80.40;;;;;;5006699;28;20157;-62
2024/02/27 09:47:07;;;;;;;20.23;12.63;;;8.90;79.60;;;;;;5005951;28;20242;-61
2024/02/27 09:49:41;;;;;;;19.25;12.90;;;8.90;79.60;;;;;;5007684;28;20041;-61
2024/02/27 09:52:14;;;;;;;18.85;12.40;;;8.90;79.40;;;;;;5006363;28;20121;-62
2024/02/27 09:54:40;;;;;;;19.08;12.30;;;9.00;79.50;;;;;;5007665;28;20104;-62
2024/02/27 09:57:06;;;;;;;18.60;12.13;;;9.00;79.40;;;;;;5006641;28;20522;-62
2024/02/27 09:59:33;;;;;;;18.65;12.35;;;9.00;79.40;;;;;;5002711;28;20033;-62
2024/02/27 10:02:11;;;;;;;17.67;11.38;;;9.10;79.30;;;;;;5007904;28;20046;-62
2024/02/27 10:04:37;;;;;;;20.08;12.32;;;9.20;79.20;;;;;;5008318;28;20033;-61
2024/02/27 10:07:08;;;;;;;16.80;12.38;;;9.20;79.10;;;;;;5006033;28;20060;-61
2024/02/27 10:09:37;;;;;;;18.80;12.63;;;9.30;79.70;;;;;;5005925;28;20218;-62
2024/02/27 10:12:03;;;;;;;18.70;12.55;;;9.30;78.90;;;;;;5007413;28;20124;-62
2024/02/27 10:14:34;;;;;;;17.20;12.23;;;9.30;78.70;;;;;;5005473;28;20041;-61
2024/02/27 10:17:03;;;;;;;19.10;12.45;;;9.30;78.60;;;;;;5006273;28;20040;-60
2024/02/27 10:19:30;;;;;;;19.58;12.57;;;9.30;78.60;;;;;;5006643;28;20033;-60
2024/02/27 10:21:56;;;;;;;18.15;12.85;;;9.40;78.70;;;;;;5005546;28;20038;-62
2024/02/27 10:24:28;;;;;;;18.65;13.00;;;9.40;78.70;;;;;;5004797;28;20112;-62
2024/02/27 10:27:02;;;;;;;18.10;12.68;;;9.40;78.70;;;;;;5007001;28;20046;-61
2024/02/27 10:29:30;;;;;;;18.02;12.88;;;9.50;78.70;;;;;;5006135;28;20080;-62
2024/02/27 10:31:56;;;;;;;18.38;12.32;;;9.50;78.90;;;;;;5006997;28;20034;-62
2024/02/27 10:34:23;;;;;;;19.73;13.05;;;9.60;78.90;;;;;;5006420;28;20030;-62
2024/02/27 10:37:02;;;;;;;16.77;12.27;;;9.70;78.90;;;;;;5005806;28;20026;-63
2024/02/27 10:39:29;;;;;;;19.05;12.27;;;9.70;79.40;;;;;;5007350;28;20025;-62
2024/02/27 10:41:55;;;;;;;16.92;12.25;;;9.80;78.60;;;;;;5005179;28;20137;-62
2024/02/27 10:44:21;;;;;;;19.05;12.77;;;9.90;78.60;;;;;;5003545;28;20132;-62
2024/02/27 10:46:47;;;;;;;18.15;12.40;;;9.90;78.40;;;;;;5006512;28;20195;-62
2024/02/27 10:49:13;;;;;;;18.45;12.63;;;10.00;78.20;;;;;;5007003;28;20041;-61
2024/02/27 10:51:41;;;;;;;18.15;12.60;;;10.00;78.20;;;;;;5004599;28;20168;-62
2024/02/27 10:54:07;;;;;;;18.67;12.73;;;10.10;78.20;;;;;;5004176;28;20041;-62
2024/02/27 10:56:34;;;;;;;20.23;13.43;;;10.10;78.00;;;;;;5006771;28;20034;-61
2024/02/27 10:59:03;;;;;;;18.30;12.75;;;10.20;77.30;;;;;;5007037;28;20409;-62
2024/02/27 11:01:31;;;;;;;20.00;12.48;;;10.20;77.10;;;;;;5004553;28;20065;-62
2024/02/27 11:03:59;;;;;;;18.25;13.13;;;10.20;77.20;;;;;;5007074;28;20034;-62
2024/02/27 11:06:27;;;;;;;18.42;12.70;;;10.10;77.20;;;;;;5005864;28;20476;-59
2024/02/27 11:09:12;;;;;;;18.52;11.98;;;10.20;77.30;;;;;;5005148;28;20524;-62
2024/02/27 11:11:38;;;;;;;;;;;10.20;77.50;;;;;;5005119;28;20036;-60
2024/02/27 11:14:10;;;;;;;17.77;11.82;;;10.20;77.40;;;;;;5007684;28;19913;-60
2024/02/27 11:16:42;;;;;;;17.30;12.27;;;10.30;77.30;;;;;;5003982;28;20045;-62
2024/02/27 11:19:16;;;;;;;18.27;12.45;;;10.30;77.20;;;;;;5006968;28;20080;-61
2024/02/27 11:21:43;;;;;;;19.08;12.82;;;10.40;76.70;;;;;;5001437;28;20065;-61
2024/02/27 11:24:11;;;;;;;18.58;12.50;;;10.40;76.60;;;;;;5006013;28;20042;-62
2024/02/27 11:26:38;;;;;;;17.80;11.95;;;10.50;76.80;;;;;;5008247;28;20060;-62
2024/02/27 11:29:05;;;;;;;20.98;12.38;;;10.50;76.80;;;;;;5008945;28;20033;-60
2024/02/27 11:31:32;;;;;;;19.02;11.98;;;10.60;76.90;;;;;;5007707;28;20034;-61
2024/02/27 11:33:59;;;;;;;19.95;12.77;;;10.60;76.80;;;;;;5008592;28;20117;-64
2024/02/27 11:36:25;;;;;;;18.40;13.23;;;10.60;76.70;;;;;;5003967;28;20172;-61
2024/02/27 11:38:51;;;;;;;17.13;12.95;;;10.70;76.70;;;;;;5008819;28;20045;-60
2024/02/27 11:41:18;;;;;;;16.58;11.80;;;10.70;76.50;;;;;;5010497;28;20033;-62
2024/02/27 11:43:48;;;;;;;17.83;12.50;;;10.80;76.40;;;;;;5008182;28;20532;-62
2024/02/27 11:46:31;;;;;;;18.75;12.93;;;10.80;76.10;;;;;;5008512;28;20056;-62
2024/02/27 11:48:58;;;;;;;16.75;12.38;;;10.90;75.50;;;;;;5008754;28;20420;-63
2024/02/27 11:51:34;;;;;;;19.50;13.10;;;10.90;75.90;;;;;;5008619;28;20476;-62
2024/02/27 11:54:00;;;;;;;18.55;12.65;;;10.90;76.00;;;;;;5008176;28;20033;-61
2024/02/27 11:56:26;;;;;;;18.50;13.32;;;11.00;76.00;;;;;;5008070;28;20037;-62
2024/02/27 11:58:54;;;;;;;19.42;13.75;;;11.00;75.60;;;;;;5008359;28;20509;-62
2024/02/27 12:01:23;;;;;;;19.10;13.15;;;11.00;75.50;;;;;;5007212;28;20042;-62
2024/02/27 12:03:50;;;;;;;19.45;13.35;;;11.00;75.10;;;;;;5010497;28;20654;-62
2024/02/27 12:06:15;;;;;;;18.92;12.90;;;11.00;75.30;;;;;;5011744;28;20053;-62
2024/02/27 12:08:49;;;;;;;20.27;13.18;;;11.10;75.30;;;;;;5009242;28;20034;-61
2024/02/27 12:11:16;;;;;;;19.23;13.50;;;11.10;75.10;;;;;;5009872;28;20065;-62
2024/02/27 12:13:49;;;;;;;17.52;13.48;;;11.10;75.30;;;;;;5011893;28;20022;-61
2024/02/27 12:16:26;;;;;;;16.67;12.77;;;11.10;75.10;;;;;;5011743;28;20038;-62
2024/02/27 12:18:53;;;;;;;17.23;13.20;;;11.20;75.10;;;;;;5012065;28;20048;-63
2024/02/27 12:21:29;;;;;;;18.83;12.98;;;11.20;75.00;;;;;;5012561;28;20038;-61
2024/02/27 12:24:15;;;;;;;19.75;13.88;;;11.30;74.60;;;;;;5007222;28;20060;-61
2024/02/27 12:26:44;;;;;;;19.27;14.13;;;11.30;74.40;;;;;;5004930;28;20030;-62
2024/02/27 12:29:10;;;;;;;18.13;13.10;;;11.30;74.40;;;;;;5008694;28;20041;-62
2024/02/27 12:31:38;;;;;;;18.80;13.35;;;11.30;74.70;;;;;;5009778;28;20034;-60
2024/02/27 12:34:08;;;;;;;19.27;12.80;;;11.30;74.60;;;;;;5008884;28;20042;-62
2024/02/27 12:36:34;;;;;;;18.55;13.60;;;11.30;74.50;;;;;;5008150;28;20446;-60
2024/02/27 12:39:00;;;;;;;19.90;13.52;;;11.30;74.40;;;;;;5014966;28;20069;-62
2024/02/27 12:41:26;;;;;;;19.20;12.73;;;11.40;74.50;;;;;;5011399;28;20189;-62
2024/02/27 12:43:52;;;;;;;17.38;12.45;;;11.30;74.30;;;;;;5016446;28;20030;-61